Time;durP1;ratioP1;P1;durP2;ratioP2;P2;SDS_P1;SDS_P2;PMS_P1;PMS_P2;Temp;Humidity;BMP_temperature;BMP_pressure;BME280_temperature;BME280_humidity;BME280_pressure;Samples;Min_cycle;Max_cycle;Signal;HPM_P1;HPM_P2
2022/11/20 00:01:10;;;;;;;7.13;2.80;;;;;;;;;;5113766;28;20208;-79
2022/11/20 00:03:37;;;;;;;4.37;2.30;;;;;;;;;;5114048;28;20319;-79
2022/11/20 00:06:06;;;;;;;4.97;2.67;;;;;;;;;;5113437;28;20588;-79
2022/11/20 00:08:35;;;;;;;2.40;2.03;;;;;;;;;;5113706;28;20698;-80
2022/11/20 00:11:04;;;;;;;2.83;2.03;;;;;;;;;;5113432;28;20218;-79
2022/11/20 00:13:31;;;;;;;6.83;2.67;;;;;;;;;;5099275;28;20200;-79
2022/11/20 00:16:00;;;;;;;5.07;2.40;;;;;;;;;;5113639;28;20228;-79
2022/11/20 00:18:26;;;;;;;9.13;3.20;;;;;;;;;;5113098;28;20684;-79
2022/11/20 00:20:53;;;;;;;4.90;2.80;;;;;;;;;;5113458;28;20199;-79
2022/11/20 00:23:20;;;;;;;8.97;2.80;;;;;;;;;;5113637;28;20272;-79
2022/11/20 00:25:47;;;;;;;3.03;2.27;;;;;;;;;;5112792;28;20210;-80
2022/11/20 00:28:13;;;;;;;4.33;2.23;;;;;;;;;;5113110;28;20196;-79
2022/11/20 00:30:40;;;;;;;6.97;2.60;;;;;;;;;;5113340;28;20201;-79
2022/11/20 00:33:08;;;;;;;4.93;2.03;;;;;;;;;;5113259;28;20698;-79
2022/11/20 00:35:35;;;;;;;3.30;2.47;;;;;;;;;;5112904;28;20226;-78
2022/11/20 00:38:02;;;;;;;3.23;2.10;;;;;;;;;;5113359;28;20263;-79
2022/11/20 00:40:29;;;;;;;4.73;2.13;;;;;;;;;;5112684;28;20232;-78
2022/11/20 00:42:56;;;;;;;2.93;1.83;;;;;;;;;;5112904;28;20207;-79
2022/11/20 00:45:22;;;;;;;4.53;2.33;;;;;;;;;;5112542;28;20204;-78
2022/11/20 00:47:49;;;;;;;3.37;2.50;;;;;;;;;;5113273;28;20200;-79
2022/11/20 00:50:17;;;;;;;5.77;2.10;;;;;;;;;;5112597;28;20238;-79
2022/11/20 00:52:44;;;;;;;3.17;2.40;;;;;;;;;;5112306;28;20207;-80
2022/11/20 00:55:11;;;;;;;6.30;2.60;;;;;;;;;;5111632;28;20237;-79
2022/11/20 00:57:38;;;;;;;9.37;2.50;;;;;;;;;;5112805;28;20204;-81
2022/11/20 01:00:06;;;;;;;2.80;2.17;;;;;;;;;;5112354;28;20196;-79
2022/11/20 01:02:32;;;;;;;4.40;1.90;;;;;;;;;;5112775;28;20233;-78
2022/11/20 01:04:59;;;;;;;7.60;3.57;;;;;;;;;;5112590;28;20630;-79
2022/11/20 01:07:27;;;;;;;2.60;2.30;;;;;;;;;;5112332;28;20212;-79
2022/11/20 01:09:54;;;;;;;4.90;2.77;;;;;;;;;;5112255;28;20666;-79
2022/11/20 01:12:21;;;;;;;2.63;2.40;;;;;;;;;;5112551;28;20209;-78
2022/11/20 01:14:48;;;;;;;6.43;2.60;;;;;;;;;;5112861;28;20240;-79
2022/11/20 01:17:15;;;;;;;4.97;1.90;;;;;;;;;;5112411;28;20211;-79
2022/11/20 01:19:42;;;;;;;3.33;2.13;;;;;;;;;;5111863;28;20274;-79
2022/11/20 01:22:09;;;;;;;6.10;2.40;;;;;;;;;;5112235;28;20206;-79
2022/11/20 01:24:37;;;;;;;6.27;2.53;;;;;;;;;;5112329;28;20201;-79
2022/11/20 01:27:03;;;;;;;5.10;2.07;;;;;;;;;;5112622;28;20256;-79
2022/11/20 01:29:30;;;;;;;5.43;2.77;;;;;;;;;;5112136;28;20272;-79
2022/11/20 01:31:57;;;;;;;6.23;2.83;;;;;;;;;;5112161;28;20200;-79
2022/11/20 01:34:24;;;;;;;3.47;2.20;;;;;;;;;;5112060;28;20249;-80
2022/11/20 01:36:52;;;;;;;7.47;2.50;;;;;;;;;;5111715;28;20200;-78
2022/11/20 01:39:23;;;;;;;3.10;2.17;;;;;;;;;;5111687;28;20596;-79
2022/11/20 01:44:54;;;;;;;7.23;2.67;;;;;;;;;;5111895;28;20204;-80
2022/11/20 01:47:31;;;;;;;6.43;2.47;;;;;;;;;;5111837;28;20217;-79
2022/11/20 01:50:02;;;;;;;3.73;3.10;;;;;;;;;;5111330;28;20592;-79
2022/11/20 01:52:32;;;;;;;2.47;1.87;;;;;;;;;;5111810;28;20200;-78
2022/11/20 01:55:03;;;;;;;6.47;4.03;;;;;;;;;;5111426;28;20228;-79
2022/11/20 01:57:33;;;;;;;6.80;2.87;;;;;;;;;;5111429;28;20203;-80
2022/11/20 02:00:05;;;;;;;5.00;2.77;;;;;;;;;;5111238;28;20208;-79
2022/11/20 02:02:32;;;;;;;3.13;1.70;;;;;;;;;;5111307;28;20232;-78
2022/11/20 02:05:02;;;;;;;2.43;1.60;;;;;;;;;;5110716;28;20569;-78
2022/11/20 02:07:29;;;;;;;3.40;2.20;;;;;;;;;;5111267;28;20201;-79
2022/11/20 02:09:55;;;;;;;5.90;3.00;;;;;;;;;;5110988;28;20249;-80
2022/11/20 02:15:08;;;;;;;3.87;1.87;;;;;;;;;;5110909;28;20230;-79
2022/11/20 02:17:35;;;;;;;3.33;1.50;;;;;;;;;;5111319;28;20197;-79
2022/11/20 02:20:02;;;;;;;5.57;2.70;;;;;;;;;;5110949;28;20211;-79
2022/11/20 02:22:33;;;;;;;3.77;2.57;;;;;;;;;;5110930;28;20263;-80
2022/11/20 02:25:03;;;;;;;6.47;2.70;;;;;;;;;;5111173;28;20646;-79
2022/11/20 02:27:30;;;;;;;5.07;2.30;;;;;;;;;;5110867;28;20252;-78
2022/11/20 02:29:59;;;;;;;6.10;2.33;;;;;;;;;;5110613;28;20703;-79
2022/11/20 02:32:28;;;;;;;4.57;2.60;;;;;;;;;;5111153;28;20218;-79
2022/11/20 02:34:54;;;;;;;6.27;1.90;;;;;;;;;;5110947;28;20587;-79
2022/11/20 02:37:22;;;;;;;2.90;1.50;;;;;;;;;;5110772;28;20203;-79
2022/11/20 02:39:50;;;;;;;4.63;2.33;;;;;;;;;;5109426;28;20212;-79
2022/11/20 02:42:18;;;;;;;5.93;2.57;;;;;;;;;;5109771;28;20207;-79
2022/11/20 02:44:44;;;;;;;3.43;2.10;;;;;;;;;;5110867;28;20219;-80
2022/11/20 02:47:11;;;;;;;4.40;2.40;;;;;;;;;;5110926;28;20246;-79
2022/11/20 02:49:38;;;;;;;7.10;2.60;;;;;;;;;;5110025;28;20204;-79
2022/11/20 02:52:05;;;;;;;3.33;2.03;;;;;;;;;;5110903;28;20208;-79
2022/11/20 02:54:32;;;;;;;4.30;3.40;;;;;;;;;;5110573;28;20203;-79
2022/11/20 02:56:58;;;;;;;4.43;2.27;;;;;;;;;;5110539;28;20231;-79
2022/11/20 02:59:26;;;;;;;3.20;2.20;;;;;;;;;;5110528;28;20203;-79
2022/11/20 03:01:53;;;;;;;4.00;2.00;;;;;;;;;;5110202;28;20593;-79
2022/11/20 03:04:20;;;;;;;5.87;2.93;;;;;;;;;;5110098;28;20204;-79
2022/11/20 03:06:47;;;;;;;4.20;2.83;;;;;;;;;;5111039;28;20264;-80
2022/11/20 03:09:14;;;;;;;2.73;2.17;;;;;;;;;;5110871;28;20200;-79
2022/11/20 03:11:40;;;;;;;3.63;2.50;;;;;;;;;;5110633;28;20195;-79
2022/11/20 03:14:07;;;;;;;3.87;2.27;;;;;;;;;;5110686;28;20207;-79
2022/11/20 03:16:35;;;;;;;5.80;2.83;;;;;;;;;;5110473;28;20222;-80
2022/11/20 03:19:02;;;;;;;6.70;2.40;;;;;;;;;;5114576;28;20211;-79
2022/11/20 03:21:29;;;;;;;7.57;2.47;;;;;;;;;;5114666;28;20217;-79
2022/11/20 03:23:56;;;;;;;8.87;2.30;;;;;;;;;;5114593;28;20268;-78
2022/11/20 03:26:25;;;;;;;4.53;2.23;;;;;;;;;;5114591;28;20205;-79
2022/11/20 03:28:52;;;;;;;5.60;2.47;;;;;;;;;;5100645;28;20204;-79
2022/11/20 03:31:20;;;;;;;3.50;3.00;;;;;;;;;;5114020;28;20207;-80
2022/11/20 03:33:49;;;;;;;5.70;2.30;;;;;;;;;;5114547;28;20210;-80
2022/11/20 03:36:17;;;;;;;5.20;2.07;;;;;;;;;;5114267;28;20235;-79
2022/11/20 03:38:44;;;;;;;7.73;3.03;;;;;;;;;;5114578;28;20200;-79
2022/11/20 03:41:13;;;;;;;4.50;2.57;;;;;;;;;;5114386;28;20208;-79
2022/11/20 03:43:40;;;;;;;4.03;1.63;;;;;;;;;;5113788;28;20206;-79
2022/11/20 03:46:08;;;;;;;6.83;2.67;;;;;;;;;;5113801;28;20212;-79
2022/11/20 03:48:34;;;;;;;5.20;3.67;;;;;;;;;;5113766;28;20203;-80
2022/11/20 03:51:10;;;;;;;8.37;1.90;;;;;;;;;;5113891;28;20200;-79
2022/11/20 03:53:37;;;;;;;3.93;2.27;;;;;;;;;;5114292;28;20970;-80
2022/11/20 03:56:04;;;;;;;4.30;1.70;;;;;;;;;;5113616;28;20216;-79
2022/11/20 03:58:31;;;;;;;4.43;1.53;;;;;;;;;;5113964;28;20197;-79
2022/11/20 04:00:58;;;;;;;3.93;1.63;;;;;;;;;;5113435;28;20203;-78
2022/11/20 04:03:24;;;;;;;3.10;1.43;;;;;;;;;;5114179;28;20197;-78
2022/11/20 04:05:51;;;;;;;2.77;1.93;;;;;;;;;;5113822;28;20204;-79
2022/11/20 04:08:22;;;;;;;4.57;1.50;;;;;;;;;;5113526;28;20631;-81
2022/11/20 04:10:48;;;;;;;6.43;3.50;;;;;;;;;;5113493;28;20587;-79
2022/11/20 04:13:15;;;;;;;2.70;1.87;;;;;;;;;;5113610;28;20708;-78
2022/11/20 04:15:42;;;;;;;4.97;2.23;;;;;;;;;;5112963;28;20224;-79
2022/11/20 04:18:09;;;;;;;5.63;2.40;;;;;;;;;;5113729;28;20601;-79
2022/11/20 04:20:36;;;;;;;12.53;3.60;;;;;;;;;;5113452;28;20677;-78
2022/11/20 04:23:03;;;;;;;3.80;1.60;;;;;;;;;;5113238;28;20622;-79
2022/11/20 04:25:31;;;;;;;4.30;1.90;;;;;;;;;;5113027;28;20265;-79
2022/11/20 04:27:58;;;;;;;5.23;2.10;;;;;;;;;;5112830;28;20206;-78
2022/11/20 04:30:24;;;;;;;9.13;2.07;;;;;;;;;;5113163;28;20227;-79
2022/11/20 04:32:51;;;;;;;2.80;1.27;;;;;;;;;;5113596;28;20234;-79
2022/11/20 04:35:18;;;;;;;5.67;1.93;;;;;;;;;;5113003;28;20199;-79
2022/11/20 04:37:44;;;;;;;6.13;2.77;;;;;;;;;;5113307;28;20204;-79
2022/11/20 04:40:12;;;;;;;7.40;2.23;;;;;;;;;;5112394;28;20196;-78
2022/11/20 04:42:40;;;;;;;4.80;1.60;;;;;;;;;;5097937;28;20202;-78
2022/11/20 04:45:08;;;;;;;3.50;1.70;;;;;;;;;;5092059;28;20745;-78
2022/11/20 04:47:35;;;;;;;5.73;1.70;;;;;;;;;;5101432;28;20292;-77
2022/11/20 04:50:01;;;;;;;4.97;1.57;;;;;;;;;;5112574;28;20694;-79
2022/11/20 04:52:28;;;;;;;2.50;1.87;;;;;;;;;;5112681;28;20690;-79
2022/11/20 04:54:55;;;;;;;4.50;2.37;;;;;;;;;;5112357;28;20201;-79
2022/11/20 04:57:22;;;;;;;3.07;1.90;;;;;;;;;;5112954;28;20649;-79
2022/11/20 04:59:52;;;;;;;4.67;2.67;;;;;;;;;;5112730;28;20212;-78
2022/11/20 05:02:19;;;;;;;6.53;1.80;;;;;;;;;;5107213;28;20224;-80
2022/11/20 05:04:46;;;;;;;4.03;1.77;;;;;;;;;;5093404;28;20212;-78
2022/11/20 05:07:12;;;;;;;5.17;1.87;;;;;;;;;;5091681;28;20202;-79
2022/11/20 05:09:40;;;;;;;2.23;1.30;;;;;;;;;;5091648;28;20197;-78
2022/11/20 05:12:08;;;;;;;2.47;1.80;;;;;;;;;;5099274;28;20209;-78
2022/11/20 05:14:35;;;;;;;3.23;1.60;;;;;;;;;;5112424;28;20199;-78
2022/11/20 05:17:03;;;;;;;3.43;1.73;;;;;;;;;;5112806;28;20235;-78
2022/11/20 05:19:30;;;;;;;3.10;1.10;;;;;;;;;;5111999;28;20199;-78
2022/11/20 05:21:57;;;;;;;3.13;1.20;;;;;;;;;;5112147;28;20204;-79
2022/11/20 05:24:24;;;;;;;3.40;2.03;;;;;;;;;;5112547;28;20647;-78
2022/11/20 05:26:50;;;;;;;3.80;1.77;;;;;;;;;;5112410;28;20187;-78
2022/11/20 05:29:17;;;;;;;7.47;2.80;;;;;;;;;;5093869;28;20238;-77
2022/11/20 05:31:44;;;;;;;5.47;2.20;;;;;;;;;;5111856;28;20196;-77
2022/11/20 05:34:12;;;;;;;5.23;2.37;;;;;;;;;;5111731;28;20207;-79
2022/11/20 05:36:39;;;;;;;4.23;2.27;;;;;;;;;;5097603;28;20230;-79
2022/11/20 05:39:06;;;;;;;7.20;3.77;;;;;;;;;;5111621;28;20206;-81
2022/11/20 05:41:34;;;;;;;7.27;2.50;;;;;;;;;;5111273;28;20256;-80
2022/11/20 05:44:00;;;;;;;2.27;1.90;;;;;;;;;;5111848;28;20632;-78
2022/11/20 05:46:27;;;;;;;2.30;1.70;;;;;;;;;;5111251;28;20211;-80
2022/11/20 05:48:54;;;;;;;2.77;2.33;;;;;;;;;;5111002;28;20693;-80
2022/11/20 05:51:24;;;;;;;2.13;1.80;;;;;;;;;;5108962;28;20594;-82
2022/11/20 05:53:51;;;;;;;3.37;1.87;;;;;;;;;;5111631;28;20211;-79
2022/11/20 05:56:19;;;;;;;4.00;2.00;;;;;;;;;;5111177;28;20227;-80
2022/11/20 05:58:46;;;;;;;7.23;2.70;;;;;;;;;;5111966;28;20211;-80
2022/11/20 06:01:15;;;;;;;20.10;10.63;;;;;;;;;;5096873;28;20954;-81
2022/11/20 06:03:45;;;;;;;4.43;2.83;;;;;;;;;;5110974;28;20210;-80
2022/11/20 06:06:12;;;;;;;7.23;2.23;;;;;;;;;;5111122;28;20678;-81
2022/11/20 06:08:40;;;;;;;9.97;3.47;;;;;;;;;;5111133;28;20203;-80
2022/11/20 06:11:09;;;;;;;2.20;2.00;;;;;;;;;;5111093;28;20215;-80
2022/11/20 06:13:36;;;;;;;4.87;2.53;;;;;;;;;;5110944;28;20203;-81
2022/11/20 06:16:03;;;;;;;2.97;1.93;;;;;;;;;;5110307;28;20231;-81
2022/11/20 06:18:30;;;;;;;4.37;2.10;;;;;;;;;;5109742;28;20203;-81
2022/11/20 06:21:02;;;;;;;3.27;1.83;;;;;;;;;;5110546;28;20670;-80
2022/11/20 06:23:30;;;;;;;5.10;2.40;;;;;;;;;;5111338;28;20200;-81
2022/11/20 06:26:02;;;;;;;5.40;2.47;;;;;;;;;;5097440;28;20209;-79
2022/11/20 06:28:28;;;;;;;2.80;1.80;;;;;;;;;;5109794;28;20260;-81
2022/11/20 06:30:55;;;;;;;3.27;1.53;;;;;;;;;;5111417;28;20200;-80
2022/11/20 06:33:22;;;;;;;3.20;2.17;;;;;;;;;;5110687;28;20205;-80
2022/11/20 06:35:49;;;;;;;1.93;1.70;;;;;;;;;;5110937;28;20210;-80
2022/11/20 06:38:15;;;;;;;4.37;1.93;;;;;;;;;;5110971;28;20673;-79
2022/11/20 06:40:43;;;;;;;2.97;1.90;;;;;;;;;;5110637;28;20196;-81
2022/11/20 06:43:11;;;;;;;3.63;1.50;;;;;;;;;;5110145;28;20218;-80
2022/11/20 06:45:38;;;;;;;5.47;1.80;;;;;;;;;;5110949;28;20208;-80
2022/11/20 06:48:05;;;;;;;3.13;2.30;;;;;;;;;;5107251;28;20203;-80
2022/11/20 06:50:32;;;;;;;4.57;2.93;;;;;;;;;;5103628;28;20679;-80
2022/11/20 06:53:01;;;;;;;7.03;2.43;;;;;;;;;;5094555;28;20214;-80
2022/11/20 06:55:28;;;;;;;5.87;2.30;;;;;;;;;;5103835;28;20654;-77
2022/11/20 06:57:55;;;;;;;4.83;2.37;;;;;;;;;;5096935;28;20234;-77
2022/11/20 07:00:23;;;;;;;4.70;3.30;;;;;;;;;;5110322;28;20237;-77
2022/11/20 07:02:50;;;;;;;10.87;8.03;;;;;;;;;;5110500;28;20280;-76
2022/11/20 07:05:17;;;;;;;6.27;3.17;;;;;;;;;;5110516;28;20227;-76
2022/11/20 07:07:43;;;;;;;7.77;3.93;;;;;;;;;;5109504;28;20199;-76
2022/11/20 07:10:11;;;;;;;9.30;4.87;;;;;;;;;;5110340;28;20809;-78
2022/11/20 07:12:37;;;;;;;9.13;5.60;;;;;;;;;;5110124;28;20206;-77
2022/11/20 07:15:05;;;;;;;8.50;7.67;;;;;;;;;;5110418;28;20199;-77
2022/11/20 07:17:33;;;;;;;6.07;3.37;;;;;;;;;;5110627;28;20296;-78
2022/11/20 07:20:00;;;;;;;9.93;4.30;;;;;;;;;;5110413;28;20201;-77
2022/11/20 07:22:27;;;;;;;5.80;4.43;;;;;;;;;;5110376;28;20208;-77
2022/11/20 07:24:54;;;;;;;7.70;4.07;;;;;;;;;;5110033;28;20211;-78
2022/11/20 07:27:21;;;;;;;8.47;4.23;;;;;;;;;;5110353;28;20207;-78
2022/11/20 07:29:47;;;;;;;4.00;3.23;;;;;;;;;;5110071;28;20208;-76
2022/11/20 07:32:14;;;;;;;3.00;2.80;;;;;;;;;;5110667;28;20201;-76
2022/11/20 07:34:42;;;;;;;7.40;4.47;;;;;;;;;;5110425;28;20197;-76
2022/11/20 07:37:09;;;;;;;7.40;3.83;;;;;;;;;;5110279;28;20654;-77
2022/11/20 07:39:36;;;;;;;3.83;2.23;;;;;;;;;;5109510;28;20686;-77
2022/11/20 07:42:03;;;;;;;4.47;2.20;;;;;;;;;;5110609;28;20200;-76
2022/11/20 07:44:30;;;;;;;3.50;2.70;;;;;;;;;;5110458;28;20206;-76
2022/11/20 07:46:57;;;;;;;6.87;3.20;;;;;;;;;;5110391;28;20208;-76
2022/11/20 07:49:23;;;;;;;6.07;3.07;;;;;;;;;;5110034;28;20204;-76
2022/11/20 07:51:55;;;;;;;4.83;2.80;;;;;;;;;;5109838;28;20202;-76
2022/11/20 07:54:22;;;;;;;7.03;2.50;;;;;;;;;;5110191;28;20207;-76
2022/11/20 07:56:49;;;;;;;4.60;1.80;;;;;;;;;;5105026;28;20735;-76
2022/11/20 07:59:16;;;;;;;9.53;6.77;;;;;;;;;;5099317;28;20203;-78
2022/11/20 08:01:44;;;;;;;8.30;3.03;;;;;;;;;;5108138;28;20260;-77
2022/11/20 08:04:11;;;;;;;4.97;2.20;;;;;;;;;;5112844;28;20201;-78
2022/11/20 08:06:37;;;;;;;5.33;2.20;;;;;;;;;;5113032;28;20215;-77
2022/11/20 08:09:06;;;;;;;15.40;9.77;;;;;;;;;;5113772;28;20267;-78
2022/11/20 08:14:16;;;;;;;10.53;6.87;;;;;;;;;;5113801;28;20586;-76
2022/11/20 08:16:44;;;;;;;2.77;2.53;;;;;;;;;;5112977;28;20222;-77
2022/11/20 08:19:11;;;;;;;4.40;2.57;;;;;;;;;;5108992;28;20259;-76
2022/11/20 08:21:38;;;;;;;9.00;4.70;;;;;;;;;;5113084;28;20205;-77
2022/11/20 08:24:07;;;;;;;4.13;2.57;;;;;;;;;;5113352;28;20201;-76
2022/11/20 08:26:34;;;;;;;8.70;3.97;;;;;;;;;;5112999;28;20266;-77
2022/11/20 08:29:01;;;;;;;5.20;3.73;;;;;;;;;;5113567;28;20297;-77
2022/11/20 08:31:28;;;;;;;8.17;6.20;;;;;;;;;;5111659;28;20208;-77
2022/11/20 08:33:55;;;;;;;7.70;3.73;;;;;;;;;;5112616;28;20609;-79
2022/11/20 08:36:23;;;;;;;11.67;5.23;;;;;;;;;;5111055;28;20202;-77
2022/11/20 08:38:50;;;;;;;9.80;7.27;;;;;;;;;;5112928;28;20263;-77
2022/11/20 08:41:25;;;;;;;8.37;3.80;;;;;;;;;;5111765;28;20206;-77
2022/11/20 08:43:55;;;;;;;6.53;4.10;;;;;;;;;;5112219;28;20203;-78
2022/11/20 08:46:22;;;;;;;6.17;4.17;;;;;;;;;;5111461;28;20229;-77
2022/11/20 08:48:50;;;;;;;8.13;4.87;;;;;;;;;;5112711;28;20206;-77
2022/11/20 08:51:17;;;;;;;9.97;4.97;;;;;;;;;;5112227;28;20201;-78
2022/11/20 08:53:43;;;;;;;6.73;5.00;;;;;;;;;;5112331;28;20196;-77
2022/11/20 08:56:11;;;;;;;7.67;4.83;;;;;;;;;;5112267;28;20193;-77
2022/11/20 08:58:39;;;;;;;6.17;3.63;;;;;;;;;;5112311;28;20248;-77
2022/11/20 09:01:06;;;;;;;12.63;7.63;;;;;;;;;;5097641;28;20208;-78
2022/11/20 09:03:33;;;;;;;16.27;10.47;;;;;;;;;;5111437;28;20639;-77
2022/11/20 09:06:01;;;;;;;10.80;7.20;;;;;;;;;;5111331;28;20229;-77
2022/11/20 09:08:30;;;;;;;7.77;5.60;;;;;;;;;;5112214;28;20699;-77
2022/11/20 09:10:58;;;;;;;4.33;2.87;;;;;;;;;;5112308;28;20197;-82
2022/11/20 09:13:26;;;;;;;119.77;72.83;;;;;;;;;;5094110;28;20250;-78
2022/11/20 09:15:59;;;;;;;12.23;7.40;;;;;;;;;;5110906;28;20207;-77
2022/11/20 09:18:26;;;;;;;12.37;7.90;;;;;;;;;;5111612;28;20224;-77
2022/11/20 09:20:56;;;;;;;7.33;4.37;;;;;;;;;;5110866;28;20764;-76
2022/11/20 09:23:23;;;;;;;3.77;3.47;;;;;;;;;;5110755;28;20206;-76
2022/11/20 09:25:50;;;;;;;20.50;14.47;;;;;;;;;;5112094;28;20208;-77
2022/11/20 09:28:18;;;;;;;5.60;3.30;;;;;;;;;;5111043;28;20202;-77
2022/11/20 09:30:44;;;;;;;6.03;2.40;;;;;;;;;;5111798;28;20210;-78
2022/11/20 09:33:14;;;;;;;5.33;2.57;;;;;;;;;;5110738;28;20202;-79
2022/11/20 09:35:40;;;;;;;6.63;4.60;;;;;;;;;;5109683;28;20201;-77
2022/11/20 09:38:07;;;;;;;5.90;3.60;;;;;;;;;;5111246;28;20235;-77
2022/11/20 09:40:36;;;;;;;5.23;3.03;;;;;;;;;;5111793;28;20199;-76
2022/11/20 09:43:06;;;;;;;17.23;7.80;;;;;;;;;;5111627;28;20210;-77
2022/11/20 09:45:48;;;;;;;5.97;2.67;;;;;;;;;;5110908;28;20202;-78
2022/11/20 09:48:26;;;;;;;5.67;4.00;;;;;;;;;;5110870;28;20207;-77
2022/11/20 09:50:58;;;;;;;5.40;3.57;;;;;;;;;;5110697;28;20621;-76
2022/11/20 09:53:29;;;;;;;9.63;4.57;;;;;;;;;;5109132;28;20194;-77
2022/11/20 09:55:56;;;;;;;4.47;3.73;;;;;;;;;;5110701;28;20207;-77
2022/11/20 09:58:31;;;;;;;10.93;3.87;;;;;;;;;;5110586;28;20226;-77
2022/11/20 10:01:04;;;;;;;8.73;5.60;;;;;;;;;;5110865;28;20294;-77
2022/11/20 10:03:39;;;;;;;8.63;5.67;;;;;;;;;;5111097;28;20235;-77
2022/11/20 10:06:06;;;;;;;7.43;3.70;;;;;;;;;;5110832;28;20568;-76
2022/11/20 10:08:40;;;;;;;9.03;3.57;;;;;;;;;;5111180;28;20625;-76
2022/11/20 10:11:11;;;;;;;8.37;5.67;;;;;;;;;;5111595;28;20209;-77
2022/11/20 10:13:41;;;;;;;6.00;2.87;;;;;;;;;;5108480;28;20251;-77
2022/11/20 10:16:16;;;;;;;8.47;3.77;;;;;;;;;;5111445;28;20739;-75
2022/11/20 10:19:01;;;;;;;7.27;2.90;;;;;;;;;;5111361;28;20607;-76
2022/11/20 10:21:36;;;;;;;6.17;3.73;;;;;;;;;;5110891;28;20253;-81
2022/11/20 10:24:38;;;;;;;19.80;10.80;;;;;;;;;;5109094;28;20285;-76
2022/11/20 10:27:14;;;;;;;11.67;3.90;;;;;;;;;;5107924;28;20202;-76
2022/11/20 10:29:44;;;;;;;6.57;3.33;;;;;;;;;;5103984;28;20285;-76
2022/11/20 10:32:15;;;;;;;9.40;2.83;;;;;;;;;;5110944;28;20226;-76
2022/11/20 10:34:48;;;;;;;6.60;3.63;;;;;;;;;;5111123;28;20206;-76
2022/11/20 10:37:18;;;;;;;11.00;5.17;;;;;;;;;;5110815;28;20202;-77
2022/11/20 10:39:52;;;;;;;5.80;4.03;;;;;;;;;;5110146;28;20218;-77
2022/11/20 10:42:27;;;;;;;9.37;3.87;;;;;;;;;;5108256;28;20446;-76
2022/11/20 10:45:02;;;;;;;10.53;4.67;;;;;;;;;;5096034;28;20198;-77
2022/11/20 10:47:29;;;;;;;7.10;3.50;;;;;;;;;;5109177;28;20203;-77
2022/11/20 10:49:59;;;;;;;8.30;3.57;;;;;;;;;;5107803;28;20204;-77
2022/11/20 10:52:31;;;;;;;19.70;7.57;;;;;;;;;;5104008;28;20615;-77
2022/11/20 10:55:05;;;;;;;9.80;4.77;;;;;;;;;;5104741;28;20195;-78
2022/11/20 10:57:41;;;;;;;8.17;3.67;;;;;;;;;;5091113;28;20229;-77
2022/11/20 11:00:11;;;;;;;8.50;4.10;;;;;;;;;;5107855;28;20211;-76
2022/11/20 11:02:42;;;;;;;10.07;4.77;;;;;;;;;;5097865;28;20320;-77
2022/11/20 11:05:28;;;;;;;18.30;8.57;;;;;;;;;;5087623;28;20592;-76
2022/11/20 11:07:57;;;;;;;12.53;4.27;;;;;;;;;;5100834;28;20681;-76
2022/11/20 11:10:27;;;;;;;13.50;4.67;;;;;;;;;;5110296;28;20677;-76
2022/11/20 11:12:53;;;;;;;13.90;5.07;;;;;;;;;;5110161;28;20203;-76
2022/11/20 11:15:28;;;;;;;19.83;8.80;;;;;;;;;;5110770;28;20215;-77
2022/11/20 11:17:55;;;;;;;13.70;7.67;;;;;;;;;;5107431;28;20215;-77
2022/11/20 11:20:24;;;;;;;8.20;4.50;;;;;;;;;;5098533;28;20237;-76
2022/11/20 11:22:52;;;;;;;10.43;2.90;;;;;;;;;;5109407;28;20207;-77
2022/11/20 11:25:25;;;;;;;12.43;7.97;;;;;;;;;;5107476;28;20663;-76
2022/11/20 11:27:54;;;;;;;14.43;6.17;;;;;;;;;;5110413;28;20211;-76
2022/11/20 11:30:22;;;;;;;10.80;4.10;;;;;;;;;;5108790;28;20686;-77
2022/11/20 11:32:49;;;;;;;15.40;3.50;;;;;;;;;;5107171;28;20233;-77
2022/11/20 11:35:28;;;;;;;9.73;3.30;;;;;;;;;;5108104;28;20645;-76
2022/11/20 11:38:05;;;;;;;9.13;6.70;;;;;;;;;;5108232;28;20502;-77
2022/11/20 11:40:33;;;;;;;7.97;4.00;;;;;;;;;;5106721;28;20273;-78
2022/11/20 11:43:02;;;;;;;9.47;3.47;;;;;;;;;;5109896;28;20211;-77
2022/11/20 11:45:28;;;;;;;14.23;4.93;;;;;;;;;;5107876;28;20200;-76
2022/11/20 11:47:56;;;;;;;16.83;4.00;;;;;;;;;;5100155;28;20574;-76
2022/11/20 11:50:24;;;;;;;8.87;4.80;;;;;;;;;;5114085;28;20678;-76
2022/11/20 11:52:59;;;;;;;10.20;4.87;;;;;;;;;;5111430;28;20285;-76
2022/11/20 11:55:31;;;;;;;16.03;6.17;;;;;;;;;;5113221;28;20203;-76
2022/11/20 11:58:15;;;;;;;12.57;5.37;;;;;;;;;;5111176;28;20227;-76
2022/11/20 12:00:50;;;;;;;14.77;5.50;;;;;;;;;;5108278;28;20282;-77
2022/11/20 12:03:20;;;;;;;19.53;6.47;;;;;;;;;;5109834;28;20227;-76
2022/11/20 12:05:50;;;;;;;14.03;6.37;;;;;;;;;;5098970;28;20222;-76
2022/11/20 12:08:24;;;;;;;19.40;3.67;;;;;;;;;;5109951;28;20196;-77
2022/11/20 12:10:54;;;;;;;9.40;3.80;;;;;;;;;;5106451;28;20195;-77
2022/11/20 12:13:33;;;;;;;13.40;4.17;;;;;;;;;;5113647;28;20630;-74
2022/11/20 12:16:01;;;;;;;9.60;3.67;;;;;;;;;;5110526;28;20230;-76
2022/11/20 12:18:28;;;;;;;9.50;3.90;;;;;;;;;;5110663;28;20819;-76
2022/11/20 12:21:10;;;;;;;15.57;4.83;;;;;;;;;;5112071;28;20202;-76
2022/11/20 12:23:45;;;;;;;13.87;4.00;;;;;;;;;;5105995;28;20200;-77
2022/11/20 12:26:36;;;;;;;11.77;3.70;;;;;;;;;;5108725;28;20587;-77
2022/11/20 12:29:08;;;;;;;10.00;5.53;;;;;;;;;;5095140;28;20642;-77
2022/11/20 12:31:50;;;;;;;10.57;2.60;;;;;;;;;;5108710;28;20218;-76
2022/11/20 12:34:35;;;;;;;9.30;4.67;;;;;;;;;;5111828;28;20200;-76
2022/11/20 12:37:08;;;;;;;13.73;6.27;;;;;;;;;;5111932;28;20217;-77
2022/11/20 12:39:42;;;;;;;9.90;3.07;;;;;;;;;;5108034;28;20732;-77
2022/11/20 12:45:51;;;;;;;12.23;4.50;;;;;;;;;;5108834;28;20217;-75
2022/11/20 12:48:34;;;;;;;31.57;17.40;;;;;;;;;;5068800;28;20197;-76
2022/11/20 12:51:15;;;;;;;9.00;4.10;;;;;;;;;;5106976;28;20207;-78
2022/11/20 12:53:48;;;;;;;25.87;11.20;;;;;;;;;;5111498;28;20199;-77
2022/11/20 12:56:25;;;;;;;12.67;5.83;;;;;;;;;;5112613;28;20202;-74
2022/11/20 12:59:02;;;;;;;16.63;6.47;;;;;;;;;;5109865;28;20238;-74
2022/11/20 13:01:43;;;;;;;11.37;4.03;;;;;;;;;;5107577;28;20219;-74
2022/11/20 13:04:20;;;;;;;14.87;4.70;;;;;;;;;;5112853;28;20230;-75
2022/11/20 13:06:47;;;;;;;10.57;4.40;;;;;;;;;;5098464;28;20210;-75
2022/11/20 13:09:16;;;;;;;11.53;5.30;;;;;;;;;;5112895;28;20206;-75
2022/11/20 13:11:46;;;;;;;14.03;4.67;;;;;;;;;;5112967;28;20198;-75
2022/11/20 13:14:23;;;;;;;7.70;4.53;;;;;;;;;;5112704;28;20210;-75
2022/11/20 13:16:55;;;;;;;8.33;3.17;;;;;;;;;;5112329;28;20195;-75
2022/11/20 13:19:22;;;;;;;9.03;2.87;;;;;;;;;;5112391;28;20235;-75
2022/11/20 13:21:50;;;;;;;20.23;6.03;;;;;;;;;;5112225;28;20251;-75
2022/11/20 13:24:29;;;;;;;7.90;2.90;;;;;;;;;;5106449;28;20735;-75
2022/11/20 13:27:06;;;;;;;13.50;3.97;;;;;;;;;;5112267;28;20195;-74
2022/11/20 13:29:34;;;;;;;18.47;4.07;;;;;;;;;;5112149;28;20203;-75
2022/11/20 13:32:13;;;;;;;16.33;8.27;;;;;;;;;;5112221;28;20199;-74
2022/11/20 13:34:40;;;;;;;14.60;4.07;;;;;;;;;;5112391;28;20199;-75
2022/11/20 13:37:26;;;;;;;18.70;6.73;;;;;;;;;;5112408;28;20199;-76
2022/11/20 13:39:55;;;;;;;15.33;5.70;;;;;;;;;;5111614;28;20230;-75
2022/11/20 13:42:27;;;;;;;20.93;6.90;;;;;;;;;;5111009;28;20203;-74
2022/11/20 13:44:55;;;;;;;12.47;4.30;;;;;;;;;;5111742;28;20209;-74
2022/11/20 13:47:25;;;;;;;15.43;6.33;;;;;;;;;;5112066;28;20205;-74
2022/11/20 13:50:00;;;;;;;13.23;6.60;;;;;;;;;;5111622;28;20261;-75
2022/11/20 13:52:41;;;;;;;10.70;5.53;;;;;;;;;;5111614;28;20579;-75
2022/11/20 13:55:16;;;;;;;12.80;7.13;;;;;;;;;;5111595;28;20231;-75
2022/11/20 13:58:06;;;;;;;23.17;8.83;;;;;;;;;;5111792;28;20203;-75
2022/11/20 14:00:32;;;;;;;13.20;5.10;;;;;;;;;;5111316;28;20199;-75
2022/11/20 14:03:07;;;;;;;13.93;5.23;;;;;;;;;;5111258;28;20227;-74
2022/11/20 14:05:37;;;;;;;86.13;35.20;;;;;;;;;;5111418;28;20199;-74
2022/11/20 14:08:05;;;;;;;40.73;18.40;;;;;;;;;;5111536;28;20192;-75
2022/11/20 14:10:32;;;;;;;47.73;18.63;;;;;;;;;;5111181;28;20291;-76
2022/11/20 14:12:59;;;;;;;17.60;9.50;;;;;;;;;;5111318;28;20210;-76
2022/11/20 14:15:31;;;;;;;15.90;6.47;;;;;;;;;;5111130;28;20192;-75
2022/11/20 14:18:01;;;;;;;23.00;8.13;;;;;;;;;;5110779;28;20264;-75
2022/11/20 14:20:31;;;;;;;22.07;11.83;;;;;;;;;;5110966;28;20199;-74
2022/11/20 14:22:57;;;;;;;30.03;14.97;;;;;;;;;;5110778;28;20222;-75
2022/11/20 14:25:27;;;;;;;17.30;7.43;;;;;;;;;;5111178;28;20205;-75
2022/11/20 14:27:55;;;;;;;22.70;6.73;;;;;;;;;;5110953;28;20203;-75
2022/11/20 14:30:24;;;;;;;19.10;5.90;;;;;;;;;;5111047;28;20665;-74
2022/11/20 14:32:54;;;;;;;9.10;3.87;;;;;;;;;;5110893;28;20206;-75
2022/11/20 14:35:25;;;;;;;11.50;6.77;;;;;;;;;;5110741;28;20206;-76
2022/11/20 14:37:52;;;;;;;17.33;8.03;;;;;;;;;;5111149;28;20206;-77
2022/11/20 14:40:29;;;;;;;20.10;5.97;;;;;;;;;;5110348;28;20238;-77
2022/11/20 14:42:56;;;;;;;17.43;5.27;;;;;;;;;;5110820;28;20627;-75
2022/11/20 14:45:23;;;;;;;14.27;4.80;;;;;;;;;;5110954;28;20206;-76
2022/11/20 14:47:52;;;;;;;18.67;6.33;;;;;;;;;;5111157;28;20202;-76
2022/11/20 14:50:23;;;;;;;11.27;5.00;;;;;;;;;;5110626;28;20586;-76
2022/11/20 14:52:54;;;;;;;17.70;5.80;;;;;;;;;;5110696;28;20207;-77
2022/11/20 14:55:29;;;;;;;17.53;6.13;;;;;;;;;;5111142;28;20206;-76
2022/11/20 14:57:57;;;;;;;10.37;4.67;;;;;;;;;;5110417;28;20197;-76
2022/11/20 15:00:25;;;;;;;13.53;4.80;;;;;;;;;;5110790;28;20226;-76
2022/11/20 15:02:53;;;;;;;10.63;3.80;;;;;;;;;;5106213;28;20292;-76